Time;durP1;ratioP1;P1;durP2;ratioP2;P2;SDS_P1;SDS_P2;PMS_P1;PMS_P2;Temp;Humidity;BMP_temperature;BMP_pressure;BME280_temperature;BME280_humidity;BME280_pressure;Samples;Min_cycle;Max_cycle;Signal;HPM_P1;HPM_P2
2022/07/23 00:00:09;;;;;;;5.07;2.40;;;19.50;66.70;;;;;;5012755;28;20030;-70
2022/07/23 00:02:35;;;;;;;5.50;2.60;;;19.50;66.80;;;;;;5008769;28;20026;-70
2022/07/23 00:05:01;;;;;;;6.88;2.33;;;19.50;66.90;;;;;;5014086;28;20404;-70
2022/07/23 00:07:27;;;;;;;5.78;2.33;;;19.40;66.90;;;;;;5013397;28;20030;-70
2022/07/23 00:09:53;;;;;;;6.28;2.30;;;19.40;66.90;;;;;;5012848;28;20038;-70
2022/07/23 00:12:18;;;;;;;4.63;2.33;;;19.40;67.10;;;;;;5010602;28;20029;-70
2022/07/23 00:14:44;;;;;;;5.20;2.22;;;19.40;67.20;;;;;;5008847;28;20038;-70
2022/07/23 00:17:09;;;;;;;8.38;2.58;;;19.40;67.30;;;;;;5013700;28;20022;-70
2022/07/23 00:19:35;;;;;;;5.78;2.50;;;19.30;68.00;;;;;;5012043;28;20026;-70
2022/07/23 00:22:01;;;;;;;4.25;2.30;;;19.30;67.40;;;;;;5011564;28;20148;-70
2022/07/23 00:24:26;;;;;;;5.80;2.47;;;19.30;67.50;;;;;;5013745;28;20060;-70
2022/07/23 00:26:52;;;;;;;6.97;2.60;;;19.20;67.50;;;;;;5011953;28;20048;-70
2022/07/23 00:29:17;;;;;;;6.93;2.78;;;19.20;67.60;;;;;;5012509;28;20026;-70
2022/07/23 00:31:43;;;;;;;7.40;2.65;;;19.20;67.70;;;;;;5014585;28;20076;-70
2022/07/23 00:34:09;;;;;;;6.88;2.42;;;19.20;67.90;;;;;;5016486;28;20141;-70
2022/07/23 00:36:34;;;;;;;5.70;2.45;;;19.20;68.00;;;;;;5010082;28;20038;-70
2022/07/23 00:39:00;;;;;;;6.75;2.78;;;19.20;68.00;;;;;;5016142;28;20451;-70
2022/07/23 00:41:26;;;;;;;6.75;2.60;;;19.10;68.00;;;;;;5016409;28;20026;-70
2022/07/23 00:43:51;;;;;;;5.80;2.63;;;19.10;68.10;;;;;;5015556;28;20030;-70
2022/07/23 00:46:21;;;;;;;5.30;2.38;;;19.10;68.20;;;;;;5016247;28;20030;-70
2022/07/23 00:48:47;;;;;;;4.47;2.33;;;19.10;68.30;;;;;;5015885;28;20029;-70
2022/07/23 00:51:15;;;;;;;6.25;2.30;;;19.10;68.30;;;;;;5016226;28;20033;-70
2022/07/23 00:53:41;;;;;;;5.82;2.58;;;19.10;68.40;;;;;;5016166;28;20083;-70
2022/07/23 00:56:08;;;;;;;6.03;2.78;;;19.00;68.50;;;;;;5016016;28;20022;-70
2022/07/23 00:58:35;;;;;;;6.10;2.53;;;19.00;68.50;;;;;;5016011;28;20037;-70
2022/07/23 01:01:01;;;;;;;7.20;2.67;;;19.00;68.60;;;;;;4995955;28;20471;-70
2022/07/23 01:03:27;;;;;;;6.22;2.72;;;19.00;68.60;;;;;;5015143;28;20100;-70
2022/07/23 01:05:53;;;;;;;6.32;2.75;;;19.00;68.70;;;;;;5015662;28;20131;-70
2022/07/23 01:08:19;;;;;;;4.93;2.42;;;19.00;68.70;;;;;;4994959;28;20155;-70
2022/07/23 01:10:48;;;;;;;5.80;2.80;;;18.90;68.70;;;;;;5014604;28;20461;-70
2022/07/23 01:13:13;;;;;;;7.38;3.17;;;18.90;68.70;;;;;;5014376;28;20033;-70
2022/07/23 01:15:39;;;;;;;6.35;2.92;;;18.90;68.80;;;;;;5024215;28;20022;-70
2022/07/23 01:18:06;;;;;;;7.13;2.92;;;18.90;68.90;;;;;;4998296;28;20030;-70
2022/07/23 01:20:33;;;;;;;5.80;2.65;;;18.90;69.00;;;;;;5002576;28;20041;-70
2022/07/23 01:22:59;;;;;;;6.55;2.67;;;18.80;68.90;;;;;;5016407;28;20456;-70
2022/07/23 01:25:25;;;;;;;6.53;2.90;;;18.80;69.00;;;;;;5016323;28;20116;-70
2022/07/23 01:27:59;;;;;;;5.05;2.50;;;18.80;69.00;;;;;;5013064;28;20065;-70
2022/07/23 01:30:25;;;;;;;7.28;2.85;;;18.80;69.10;;;;;;5015365;28;20454;-70
2022/07/23 01:32:51;;;;;;;6.57;3.15;;;18.80;69.20;;;;;;5009636;28;20038;-70
2022/07/23 01:35:16;;;;;;;7.13;2.80;;;18.80;69.20;;;;;;5015130;28;20022;-70
2022/07/23 01:37:42;;;;;;;7.70;3.10;;;18.80;69.20;;;;;;4997451;28;20033;-70
2022/07/23 01:40:09;;;;;;;6.28;2.85;;;18.70;69.20;;;;;;5015517;28;20045;-70
2022/07/23 01:42:36;;;;;;;6.90;3.00;;;18.70;69.20;;;;;;5029332;28;20057;-70
2022/07/23 01:45:04;;;;;;;7.15;2.78;;;18.70;69.30;;;;;;5014370;28;20025;-70
2022/07/23 01:47:30;;;;;;;6.90;2.90;;;18.70;69.40;;;;;;5005353;28;20042;-70
2022/07/23 01:49:56;;;;;;;6.18;2.85;;;18.70;69.40;;;;;;5013558;28;20022;-70
2022/07/23 01:52:40;;;;;;;5.53;2.50;;;18.60;69.40;;;;;;5014252;28;20112;-70
2022/07/23 01:55:08;;;;;;;6.53;2.75;;;18.60;69.40;;;;;;5030321;28;20463;-70
2022/07/23 01:57:35;;;;;;;5.53;2.67;;;18.60;69.40;;;;;;4998180;28;20033;-70
2022/07/23 02:00:01;;;;;;;5.70;2.50;;;18.60;69.40;;;;;;5013456;28;20018;-69
2022/07/23 02:02:27;;;;;;;5.18;2.60;;;18.60;69.40;;;;;;5014092;28;20079;-69
2022/07/23 02:04:53;;;;;;;5.40;2.38;;;18.60;69.50;;;;;;5013644;28;20112;-69
2022/07/23 02:07:21;;;;;;;7.30;2.67;;;18.50;69.40;;;;;;5003332;28;20022;-70
2022/07/23 02:09:46;;;;;;;6.95;3.03;;;18.50;69.40;;;;;;5001491;28;20116;-70
2022/07/23 02:12:12;;;;;;;6.30;2.63;;;18.50;69.30;;;;;;5023084;28;20076;-70
2022/07/23 02:14:38;;;;;;;6.07;2.92;;;18.50;69.30;;;;;;5021128;28;20050;-70
2022/07/23 02:17:03;;;;;;;5.85;2.67;;;18.50;69.40;;;;;;5015085;28;20021;-70
2022/07/23 02:19:29;;;;;;;6.13;2.55;;;18.50;69.50;;;;;;5019790;28;20076;-70
2022/07/23 02:21:54;;;;;;;5.07;2.53;;;18.40;69.50;;;;;;5024683;28;20029;-70
2022/07/23 02:24:20;;;;;;;5.75;2.53;;;18.40;69.50;;;;;;5003458;28;20022;-69
2022/07/23 02:26:46;;;;;;;6.65;2.33;;;18.40;69.50;;;;;;5026417;28;20030;-70
2022/07/23 02:29:12;;;;;;;5.40;2.42;;;18.40;69.60;;;;;;5024048;28;20060;-70
2022/07/23 02:31:38;;;;;;;7.53;2.40;;;18.40;69.70;;;;;;5026758;28;20065;-70
2022/07/23 02:34:05;;;;;;;6.82;2.50;;;18.30;69.70;;;;;;5027895;28;20037;-70
2022/07/23 02:36:31;;;;;;;5.68;2.88;;;18.30;69.70;;;;;;5003921;28;20021;-70
2022/07/23 02:38:57;;;;;;;6.75;2.67;;;18.30;69.80;;;;;;5005225;28;20447;-70
2022/07/23 02:41:23;;;;;;;5.18;2.60;;;18.20;69.80;;;;;;5031499;28;20031;-70
2022/07/23 02:43:49;;;;;;;6.30;2.63;;;18.20;69.90;;;;;;5031531;28;20036;-70
2022/07/23 02:46:15;;;;;;;5.03;2.55;;;18.20;69.90;;;;;;5021752;28;20030;-70
2022/07/23 02:48:41;;;;;;;6.43;2.50;;;18.20;69.90;;;;;;5025264;28;20084;-70
2022/07/23 02:51:06;;;;;;;5.18;2.45;;;18.20;69.80;;;;;;5023236;28;20045;-69
2022/07/23 02:53:37;;;;;;;6.03;2.35;;;18.20;69.90;;;;;;5026033;28;20026;-69
2022/07/23 02:56:03;;;;;;;6.22;2.35;;;18.20;70.00;;;;;;5016591;28;20058;-70
2022/07/23 02:58:29;;;;;;;5.40;2.42;;;18.10;70.00;;;;;;5014513;28;20059;-70
2022/07/23 03:00:54;;;;;;;6.95;2.70;;;18.10;70.00;;;;;;5017136;28;20069;-70
2022/07/23 03:03:20;;;;;;;5.63;2.17;;;18.10;70.00;;;;;;5015118;28;20025;-70
2022/07/23 03:05:46;;;;;;;3.60;1.95;;;18.10;70.00;;;;;;5012966;28;20092;-70
2022/07/23 03:08:12;;;;;;;5.30;2.40;;;18.10;70.00;;;;;;5013675;28;20140;-70
2022/07/23 03:10:40;;;;;;;5.55;2.30;;;18.10;70.00;;;;;;5012256;28;20025;-69
2022/07/23 03:13:07;;;;;;;5.65;2.33;;;18.00;69.90;;;;;;5012852;28;20026;-69
2022/07/23 03:15:33;;;;;;;5.70;2.28;;;18.00;70.00;;;;;;5013030;28;20117;-70
2022/07/23 03:17:58;;;;;;;5.35;2.63;;;18.00;70.00;;;;;;5023211;28;20017;-70
2022/07/23 03:20:24;;;;;;;5.30;2.22;;;18.00;70.10;;;;;;5022035;28;20070;-70
2022/07/23 03:22:49;;;;;;;4.18;2.10;;;17.90;70.10;;;;;;5027075;28;20202;-70
2022/07/23 03:25:16;;;;;;;6.95;2.60;;;17.90;70.20;;;;;;5012717;28;20125;-70
2022/07/23 03:27:42;;;;;;;6.22;2.83;;;17.90;70.20;;;;;;5013106;28;20516;-70
2022/07/23 03:30:09;;;;;;;6.63;2.40;;;17.90;70.30;;;;;;4996350;28;20022;-70
2022/07/23 03:32:35;;;;;;;5.82;2.70;;;17.80;70.30;;;;;;5012222;28;20045;-70
2022/07/23 03:35:00;;;;;;;5.97;2.10;;;17.80;70.40;;;;;;5013318;28;20030;-70
2022/07/23 03:37:26;;;;;;;4.22;1.90;;;17.80;70.40;;;;;;5006205;28;20065;-70
2022/07/23 03:39:52;;;;;;;4.97;2.20;;;17.80;70.50;;;;;;5027728;28;20022;-70
2022/07/23 03:42:17;;;;;;;5.75;2.35;;;17.70;70.50;;;;;;4998896;28;20525;-70
2022/07/23 03:44:45;;;;;;;6.15;2.17;;;17.70;70.50;;;;;;5007838;28;20487;-70
2022/07/23 03:47:11;;;;;;;6.32;2.33;;;17.80;70.60;;;;;;5011079;28;20030;-70
2022/07/23 03:49:37;;;;;;;4.63;2.10;;;17.70;70.60;;;;;;4995372;28;20125;-70
2022/07/23 03:52:02;;;;;;;5.35;2.10;;;17.70;70.60;;;;;;4994974;28;20191;-70
2022/07/23 03:54:29;;;;;;;5.65;2.25;;;17.70;70.60;;;;;;5007902;28;20120;-70
2022/07/23 03:56:55;;;;;;;5.63;2.00;;;17.70;70.60;;;;;;5025106;28;20113;-70
2022/07/23 03:59:21;;;;;;;5.65;2.10;;;17.70;70.60;;;;;;5012386;28;20117;-70
2022/07/23 04:01:46;;;;;;;5.57;2.15;;;17.70;70.70;;;;;;4995100;28;20415;-70
2022/07/23 04:04:12;;;;;;;4.10;1.95;;;17.70;70.70;;;;;;4992675;28;20030;-70
2022/07/23 04:06:40;;;;;;;3.53;1.85;;;17.70;70.70;;;;;;5015063;28;20492;-70
2022/07/23 04:09:05;;;;;;;5.00;2.40;;;17.70;70.70;;;;;;5011471;28;20030;-70
2022/07/23 04:11:32;;;;;;;6.15;2.10;;;17.70;70.70;;;;;;5014365;28;20061;-70
2022/07/23 04:13:58;;;;;;;6.43;2.30;;;17.70;70.80;;;;;;5014987;28;20092;-70
2022/07/23 04:16:23;;;;;;;4.82;2.00;;;17.70;70.70;;;;;;5014686;28;20026;-70
2022/07/23 04:18:49;;;;;;;6.65;2.00;;;17.70;70.70;;;;;;5015269;28;20026;-70
2022/07/23 04:21:18;;;;;;;6.97;2.15;;;17.70;70.80;;;;;;5015088;28;20467;-70
2022/07/23 04:23:45;;;;;;;5.20;2.05;;;17.70;70.80;;;;;;4998740;28;20038;-69
2022/07/23 04:26:11;;;;;;;3.72;1.90;;;17.60;70.80;;;;;;5012865;28;20481;-69
2022/07/23 04:28:37;;;;;;;4.05;1.88;;;17.60;70.80;;;;;;5014963;28;20120;-69
2022/07/23 04:31:04;;;;;;;3.92;1.77;;;17.70;70.90;;;;;;5012833;28;20336;-69
2022/07/23 04:33:30;;;;;;;5.32;2.15;;;17.70;70.90;;;;;;5014753;28;20642;-70
2022/07/23 04:35:58;;;;;;;4.95;2.10;;;17.70;71.00;;;;;;5015015;28;20037;-69
2022/07/23 04:38:23;;;;;;;6.53;2.33;;;17.70;71.00;;;;;;4999982;28;20022;-69
2022/07/23 04:40:52;;;;;;;3.97;1.90;;;17.70;71.10;;;;;;5008610;28;20025;-70
2022/07/23 04:43:19;;;;;;;4.35;2.10;;;17.70;71.10;;;;;;5015436;28;20530;-69
2022/07/23 04:45:47;;;;;;;5.90;2.35;;;17.70;71.10;;;;;;5001062;28;20018;-69
2022/07/23 04:48:13;;;;;;;4.78;2.08;;;17.80;71.20;;;;;;5014104;28;20084;-69
2022/07/23 04:50:39;;;;;;;4.97;2.10;;;17.80;71.20;;;;;;5032214;28;20037;-69
2022/07/23 04:53:14;;;;;;;5.05;1.80;;;17.80;71.20;;;;;;4998783;28;20026;-69
2022/07/23 04:55:40;;;;;;;7.45;2.20;;;17.80;71.20;;;;;;5013256;28;20018;-69
2022/07/23 04:58:05;;;;;;;4.93;2.28;;;17.80;71.20;;;;;;5015591;28;20043;-71
2022/07/23 05:00:31;;;;;;;4.65;1.95;;;17.90;71.30;;;;;;5002489;28;20022;-70
2022/07/23 05:02:57;;;;;;;4.15;1.83;;;17.90;71.40;;;;;;5016038;28;20486;-70
2022/07/23 05:05:23;;;;;;;3.92;1.98;;;17.90;71.30;;;;;;4998856;28;20025;-68
2022/07/23 05:07:49;;;;;;;5.80;2.10;;;17.90;71.40;;;;;;4997202;28;20060;-69
2022/07/23 05:10:16;;;;;;;5.85;1.90;;;18.00;71.50;;;;;;4995383;28;20026;-69
2022/07/23 05:12:41;;;;;;;4.00;1.90;;;18.00;71.40;;;;;;5020425;28;20037;-70
2022/07/23 05:15:07;;;;;;;5.68;2.15;;;18.00;71.30;;;;;;5007331;28;20061;-70
2022/07/23 05:17:33;;;;;;;4.68;1.80;;;18.10;71.40;;;;;;5012857;28;20350;-70
2022/07/23 05:20:02;;;;;;;5.95;2.08;;;18.10;71.30;;;;;;5018138;28;20107;-70
2022/07/23 05:22:28;;;;;;;4.72;1.80;;;18.20;71.30;;;;;;5021426;28;20354;-70
2022/07/23 05:24:54;;;;;;;8.90;2.17;;;18.30;71.30;;;;;;5035854;28;20095;-70
2022/07/23 05:27:20;;;;;;;4.35;1.80;;;18.30;71.10;;;;;;5007560;28;20107;-70
2022/07/23 05:29:46;;;;;;;6.15;2.10;;;18.40;71.00;;;;;;5032694;28;20098;-70
2022/07/23 05:32:12;;;;;;;4.80;2.03;;;18.50;70.90;;;;;;5017676;28;20128;-70
2022/07/23 05:34:41;;;;;;;4.55;2.03;;;18.60;70.60;;;;;;5015172;28;20036;-70
2022/07/23 05:37:07;;;;;;;3.45;1.60;;;18.70;70.30;;;;;;5007762;28;20362;-70
2022/07/23 05:39:33;;;;;;;6.05;1.83;;;18.80;70.00;;;;;;5035973;28;20021;-70
2022/07/23 05:41:59;;;;;;;5.00;1.90;;;18.90;69.60;;;;;;5017854;28;20422;-70
2022/07/23 05:44:24;;;;;;;3.95;1.85;;;18.90;69.30;;;;;;5033661;28;20041;-70
2022/07/23 05:46:50;;;;;;;4.25;1.52;;;19.10;69.00;;;;;;5021159;28;20034;-70
2022/07/23 05:49:20;;;;;;;6.38;1.90;;;19.10;68.70;;;;;;5016933;28;20041;-69
2022/07/23 05:52:04;;;;;;;4.30;1.50;;;19.20;68.70;;;;;;5000786;28;20034;-70
2022/07/23 05:54:42;;;;;;;3.30;1.40;;;19.30;68.50;;;;;;5016315;28;20113;-68
2022/07/23 05:57:08;;;;;;;4.32;1.35;;;19.40;68.20;;;;;;5001848;28;20054;-69
2022/07/23 05:59:34;;;;;;;4.97;1.83;;;19.50;67.90;;;;;;5001099;28;20680;-69
2022/07/23 06:01:59;;;;;;;3.00;1.35;;;19.50;67.60;;;;;;5014923;28;20386;-69
2022/07/23 06:04:26;;;;;;;3.22;1.40;;;19.60;67.40;;;;;;5024849;28;20064;-70
2022/07/23 06:07:10;;;;;;;3.67;1.65;;;19.70;67.30;;;;;;5012913;28;20121;-70
2022/07/23 06:09:36;;;;;;;3.38;1.40;;;19.80;66.90;;;;;;5029582;28;20116;-70
2022/07/23 06:12:02;;;;;;;4.40;1.60;;;19.90;66.50;;;;;;5011919;28;20026;-68
2022/07/23 06:14:27;;;;;;;3.42;1.38;;;20.00;66.10;;;;;;5010214;28;20487;-68
2022/07/23 06:16:55;;;;;;;4.32;1.48;;;20.10;65.80;;;;;;5014229;28;20018;-68
2022/07/23 06:19:22;;;;;;;4.82;1.60;;;20.20;65.50;;;;;;5014505;28;20017;-68
2022/07/23 06:21:48;;;;;;;3.25;1.48;;;20.30;65.30;;;;;;5013718;28;20025;-68
2022/07/23 06:24:16;;;;;;;5.82;1.60;;;20.40;65.00;;;;;;5013788;28;20032;-69
2022/07/23 06:26:41;;;;;;;3.15;1.35;;;20.50;64.70;;;;;;5008761;28;20035;-69
2022/07/23 06:29:07;;;;;;;4.18;1.40;;;20.60;64.50;;;;;;5014396;28;20030;-69
2022/07/23 06:31:33;;;;;;;3.95;1.60;;;20.60;65.00;;;;;;5014851;28;20037;-69
2022/07/23 06:33:59;;;;;;;4.43;1.65;;;20.70;64.20;;;;;;5013330;28;20026;-70
2022/07/23 06:36:24;;;;;;;3.95;1.55;;;20.80;63.80;;;;;;5013979;28;20026;-69
2022/07/23 06:38:50;;;;;;;4.95;1.70;;;21.00;63.60;;;;;;5009868;28;20045;-69
2022/07/23 06:41:16;;;;;;;4.05;1.45;;;21.20;63.30;;;;;;5030165;28;20317;-69
2022/07/23 06:43:41;;;;;;;5.53;1.80;;;21.30;62.70;;;;;;5029343;28;20030;-69
2022/07/23 06:46:08;;;;;;;3.60;1.42;;;21.40;62.20;;;;;;5014095;28;20025;-70
2022/07/23 06:48:35;;;;;;;4.55;1.75;;;21.60;61.60;;;;;;5013978;28;20034;-69
2022/07/23 06:51:02;;;;;;;3.55;1.60;;;21.70;61.10;;;;;;5015120;28;20103;-69
2022/07/23 06:53:27;;;;;;;3.92;1.73;;;21.80;60.90;;;;;;4997349;28;20431;-69
2022/07/23 06:55:53;;;;;;;3.92;1.60;;;21.90;60.50;;;;;;5026537;28;20033;-68
2022/07/23 06:58:19;;;;;;;4.15;1.55;;;22.00;60.00;;;;;;5014523;28;20104;-67
2022/07/23 07:00:45;;;;;;;6.40;1.83;;;22.00;59.70;;;;;;5014110;28;20040;-68
2022/07/23 07:03:10;;;;;;;4.10;1.60;;;22.10;59.60;;;;;;5014306;28;20038;-68
2022/07/23 07:05:36;;;;;;;5.18;1.40;;;22.30;59.20;;;;;;5015613;28;20037;-68
2022/07/23 07:08:02;;;;;;;3.47;1.65;;;22.50;58.70;;;;;;5008782;28;20034;-68
2022/07/23 07:10:28;;;;;;;3.50;1.50;;;22.70;58.50;;;;;;5014443;28;20081;-68
2022/07/23 07:12:53;;;;;;;4.90;1.88;;;22.90;58.30;;;;;;4994960;28;20037;-68
2022/07/23 07:15:19;;;;;;;3.42;1.50;;;22.90;57.90;;;;;;5013711;28;20050;-68
2022/07/23 07:17:44;;;;;;;5.03;1.92;;;22.80;57.90;;;;;;4999508;28;20031;-69
2022/07/23 07:20:11;;;;;;;4.35;1.45;;;22.90;57.80;;;;;;5023921;28;20060;-69
2022/07/23 07:22:36;;;;;;;3.80;1.50;;;22.90;57.60;;;;;;5014986;28;20033;-68
2022/07/23 07:25:02;;;;;;;3.05;1.50;;;23.00;57.30;;;;;;5013066;28;20029;-68
2022/07/23 07:27:28;;;;;;;4.10;1.38;;;23.10;56.90;;;;;;5014251;28;20348;-68
2022/07/23 07:29:54;;;;;;;2.97;1.50;;;23.30;56.60;;;;;;5030450;28;20083;-69
2022/07/23 07:32:19;;;;;;;3.45;1.38;;;23.40;56.40;;;;;;5015335;28;20026;-68
2022/07/23 07:34:45;;;;;;;4.28;1.60;;;23.50;56.10;;;;;;5030202;28;20026;-68
2022/07/23 07:37:10;;;;;;;3.58;1.60;;;23.60;55.70;;;;;;5014275;28;20147;-69
2022/07/23 07:39:36;;;;;;;4.25;1.80;;;23.70;55.10;;;;;;5016777;28;20033;-69
2022/07/23 07:42:02;;;;;;;3.58;1.50;;;23.80;54.80;;;;;;5020676;28;20040;-69
2022/07/23 07:44:27;;;;;;;4.70;1.70;;;23.80;54.50;;;;;;5021312;28;20030;-69
2022/07/23 07:46:53;;;;;;;2.55;1.38;;;23.90;54.30;;;;;;5037007;28;20034;-68
2022/07/23 07:49:19;;;;;;;4.38;1.52;;;24.00;54.10;;;;;;5021329;28;20107;-69
2022/07/23 07:51:45;;;;;;;5.00;1.48;;;24.20;53.90;;;;;;5019598;28;20108;-68
2022/07/23 07:54:12;;;;;;;3.15;1.23;;;24.30;53.60;;;;;;5000429;28;20027;-68
2022/07/23 07:56:37;;;;;;;4.40;1.75;;;24.50;53.20;;;;;;5019045;28;20026;-69
2022/07/23 07:59:03;;;;;;;3.13;1.40;;;24.60;53.00;;;;;;5020490;28;20030;-68
2022/07/23 08:01:29;;;;;;;4.38;1.77;;;24.70;52.70;;;;;;5018251;28;20359;-68
2022/07/23 08:03:54;;;;;;;3.45;1.45;;;24.80;52.30;;;;;;5020755;28;20458;-69
2022/07/23 08:06:20;;;;;;;3.65;1.60;;;24.90;52.00;;;;;;5020971;28;20109;-69
2022/07/23 08:08:45;;;;;;;5.63;1.60;;;24.90;51.70;;;;;;5018828;28;20037;-68
2022/07/23 08:11:11;;;;;;;3.20;1.40;;;25.00;51.60;;;;;;5018393;28;20026;-69
2022/07/23 08:13:37;;;;;;;3.65;1.30;;;25.00;51.40;;;;;;5009351;28;20046;-68
2022/07/23 08:16:03;;;;;;;3.97;1.30;;;25.00;51.10;;;;;;5026017;28;20026;-69
2022/07/23 08:18:30;;;;;;;3.00;1.30;;;25.00;51.10;;;;;;5021202;28;20033;-68
2022/07/23 08:20:55;;;;;;;3.95;1.48;;;25.00;51.00;;;;;;5019851;28;20021;-69
2022/07/23 08:23:21;;;;;;;4.05;1.40;;;25.10;50.80;;;;;;5007673;28;20477;-69
2022/07/23 08:25:47;;;;;;;3.28;1.50;;;25.10;50.70;;;;;;5021611;28;20530;-69
2022/07/23 08:28:14;;;;;;;3.63;1.42;;;25.10;50.60;;;;;;5024151;28;20025;-69
2022/07/23 08:30:43;;;;;;;5.60;1.30;;;25.20;50.50;;;;;;5010778;28;20442;-68
2022/07/23 08:33:18;;;;;;;2.33;1.17;;;25.30;50.30;;;;;;5013707;28;20049;-70
2022/07/23 08:35:50;;;;;;;2.38;1.20;;;25.50;50.20;;;;;;5002869;28;20577;-69
2022/07/23 08:38:18;;;;;;;2.28;1.10;;;25.60;50.10;;;;;;5012893;28;20026;-70
2022/07/23 08:40:46;;;;;;;4.07;1.58;;;25.70;50.20;;;;;;5003239;28;20089;-70
2022/07/23 08:43:17;;;;;;;3.08;1.55;;;25.70;49.70;;;;;;5028681;28;20386;-71
2022/07/23 08:45:44;;;;;;;;;;;25.80;49.60;;;;;;5022383;28;20461;-70
2022/07/23 08:48:33;;;;;;;4.68;1.50;;;25.80;49.80;;;;;;5017559;28;19913;-70
2022/07/23 08:51:01;;;;;;;3.38;1.60;;;25.90;49.60;;;;;;5018752;28;20046;-70
2022/07/23 08:53:29;;;;;;;4.03;1.42;;;25.90;49.60;;;;;;5004768;28;20041;-70
2022/07/23 08:56:01;;;;;;;3.83;1.40;;;25.90;49.40;;;;;;5016576;28;20470;-70
2022/07/23 08:58:27;;;;;;;2.47;1.17;;;26.00;49.10;;;;;;5009048;28;20117;-69
2022/07/23 09:00:53;;;;;;;3.03;1.27;;;26.00;48.80;;;;;;5014087;28;20034;-70
2022/07/23 09:03:22;;;;;;;2.15;1.33;;;26.10;48.50;;;;;;5013619;28;20037;-70
2022/07/23 09:05:50;;;;;;;2.63;1.42;;;26.10;48.40;;;;;;5016466;28;20399;-70
2022/07/23 09:08:25;;;;;;;3.40;1.55;;;26.20;48.00;;;;;;5015861;28;20026;-70
2022/07/23 09:10:57;;;;;;;3.35;1.48;;;26.30;47.60;;;;;;5016316;28;20025;-70
2022/07/23 09:13:26;;;;;;;2.80;1.02;;;26.40;47.50;;;;;;5016107;28;20050;-71
2022/07/23 09:15:54;;;;;;;3.47;1.50;;;26.40;47.30;;;;;;5010097;28;20033;-70
2022/07/23 09:18:32;;;;;;;2.65;1.50;;;26.50;47.10;;;;;;5012432;28;20325;-70
2022/07/23 09:21:17;;;;;;;3.85;1.58;;;26.60;46.70;;;;;;5001867;28;20057;-70
2022/07/23 09:23:50;;;;;;;3.03;1.40;;;26.80;46.70;;;;;;5015477;28;20045;-70
2022/07/23 09:26:22;;;;;;;4.22;1.50;;;26.90;46.60;;;;;;5014849;28;20018;-70
2022/07/23 09:28:58;;;;;;;2.80;1.38;;;27.00;46.40;;;;;;5016291;28;20485;-70
2022/07/23 09:31:25;;;;;;;2.70;1.48;;;27.20;46.20;;;;;;5014707;28;20164;-70
2022/07/23 09:33:51;;;;;;;3.60;1.33;;;27.20;46.00;;;;;;5026379;28;20022;-71
2022/07/23 09:36:30;;;;;;;4.97;1.67;;;27.30;46.60;;;;;;5010153;28;20036;-70
2022/07/23 09:38:56;;;;;;;3.05;1.42;;;27.40;45.70;;;;;;5017035;28;20382;-71
2022/07/23 09:41:23;;;;;;;2.60;1.30;;;27.50;45.60;;;;;;5015112;28;20014;-71
2022/07/23 09:43:55;;;;;;;3.72;1.70;;;27.50;45.50;;;;;;5011159;28;20033;-71
2022/07/23 09:46:25;;;;;;;4.50;1.70;;;27.50;45.20;;;;;;5013849;28;20030;-71
2022/07/23 09:48:53;;;;;;;3.33;1.70;;;27.50;45.40;;;;;;5010074;28;20289;-71
2022/07/23 09:51:40;;;;;;;3.50;1.33;;;27.60;45.50;;;;;;5011172;28;20029;-71
2022/07/23 09:54:05;;;;;;;4.22;1.52;;;27.60;45.20;;;;;;5013658;28;20045;-71
2022/07/23 09:56:32;;;;;;;2.92;1.30;;;27.70;44.80;;;;;;4998311;28;20029;-71
2022/07/23 09:59:18;;;;;;;3.55;1.30;;;27.70;44.70;;;;;;5011026;28;20022;-71
2022/07/23 10:01:45;;;;;;;3.60;1.65;;;27.70;44.70;;;;;;5013788;28;20034;-71
2022/07/23 10:04:14;;;;;;;2.78;1.23;;;27.60;45.30;;;;;;5013771;28;20152;-71
2022/07/23 10:07:07;;;;;;;4.00;1.77;;;27.60;44.80;;;;;;5013523;28;20463;-72
2022/07/23 10:09:52;;;;;;;3.10;1.50;;;27.70;44.90;;;;;;5004202;28;20088;-70
2022/07/23 10:15:17;;;;;;;4.55;1.67;;;28.00;44.50;;;;;;5014108;28;20076;-70
2022/07/23 10:17:42;;;;;;;3.67;1.60;;;28.10;44.40;;;;;;5016401;28;20363;-71
2022/07/23 10:20:08;;;;;;;3.90;1.45;;;28.10;44.20;;;;;;5007399;28;20030;-72
2022/07/23 10:22:44;;;;;;;2.72;1.45;;;28.10;44.30;;;;;;5013983;28;20018;-72
2022/07/23 10:25:21;;;;;;;6.28;1.40;;;28.20;44.10;;;;;;5015121;28;20029;-71
2022/07/23 10:28:04;;;;;;;3.42;1.35;;;28.30;44.10;;;;;;5010068;28;20033;-71
2022/07/23 10:30:44;;;;;;;3.55;1.80;;;28.40;43.80;;;;;;5014388;28;20383;-71
2022/07/23 10:33:47;;;;;;;2.88;1.15;;;28.50;43.00;;;;;;5012344;28;20026;-71
2022/07/23 10:36:53;;;;;;;4.00;1.40;;;28.40;43.20;;;;;;5027603;28;20032;-71
2022/07/23 10:39:30;;;;;;;4.90;1.60;;;28.40;43.40;;;;;;4973791;28;20391;-71
2022/07/23 10:42:13;;;;;;;3.55;1.65;;;28.40;43.30;;;;;;4971524;28;20046;-71
2022/07/23 10:44:47;;;;;;;5.03;1.70;;;28.40;42.90;;;;;;4971393;28;20039;-71
2022/07/23 10:49:53;;;;;;;;;;;28.40;42.90;;;;;;4994236;28;20379;-71
2022/07/23 10:52:28;;;;;;;3.35;1.60;;;28.40;43.30;;;;;;4973950;28;19920;-71
2022/07/23 10:55:16;;;;;;;4.75;1.50;;;28.30;43.10;;;;;;4977020;28;20202;-70
2022/07/23 10:57:51;;;;;;;3.47;1.40;;;28.30;43.20;;;;;;4950381;28;20026;-71
2022/07/23 11:00:25;;;;;;;4.95;2.10;;;28.30;43.20;;;;;;4975621;28;20137;-71
2022/07/23 11:03:00;;;;;;;4.07;1.73;;;28.40;43.10;;;;;;4992033;28;20045;-71
2022/07/23 11:05:47;;;;;;;3.95;1.90;;;28.40;43.20;;;;;;4992121;28;20038;-71
2022/07/23 11:08:16;;;;;;;2.65;1.50;;;28.40;43.20;;;;;;4966578;28;20353;-71
2022/07/23 11:10:53;;;;;;;3.35;1.90;;;28.50;42.80;;;;;;4992798;28;20395;-71
2022/07/23 11:13:22;;;;;;;3.63;1.88;;;28.50;42.70;;;;;;4994477;28;20057;-71
2022/07/23 11:16:13;;;;;;;4.72;1.60;;;28.50;42.40;;;;;;5032733;28;20036;-70
2022/07/23 11:18:47;;;;;;;4.50;2.05;;;28.50;42.40;;;;;;5015336;28;20168;-70
2022/07/23 11:21:31;;;;;;;6.82;1.85;;;28.50;42.40;;;;;;5031974;28;20025;-71
2022/07/23 11:23:56;;;;;;;6.78;1.95;;;28.50;42.20;;;;;;5016799;28;20017;-70
2022/07/23 11:26:43;;;;;;;4.22;1.70;;;28.30;42.30;;;;;;5021202;28;20048;-71
2022/07/23 11:29:36;;;;;;;3.55;1.60;;;28.20;42.70;;;;;;5010646;28;20022;-70
2022/07/23 11:32:08;;;;;;;4.32;1.90;;;28.10;42.70;;;;;;5013485;28;20048;-70
2022/07/23 11:34:35;;;;;;;4.20;1.75;;;28.20;42.80;;;;;;5028121;28;20037;-70
2022/07/23 11:37:03;;;;;;;3.60;1.55;;;28.20;42.60;;;;;;5012989;28;20026;-71
2022/07/23 11:39:30;;;;;;;5.35;1.95;;;28.10;42.20;;;;;;5017960;28;20038;-70
2022/07/23 11:41:57;;;;;;;3.55;1.65;;;28.10;42.10;;;;;;5018016;28;20029;-70
2022/07/23 11:44:35;;;;;;;4.47;1.98;;;28.00;42.10;;;;;;5016730;28;20150;-72
2022/07/23 11:47:03;;;;;;;4.00;1.70;;;28.10;42.20;;;;;;5016532;28;20030;-71
2022/07/23 11:49:30;;;;;;;4.30;2.05;;;28.10;42.40;;;;;;5013699;28;20045;-72
2022/07/23 11:52:13;;;;;;;4.00;1.75;;;28.10;42.10;;;;;;5012487;28;20041;-72
2022/07/23 11:55:04;;;;;;;3.75;1.63;;;27.80;42.30;;;;;;5009707;28;20475;-71
2022/07/23 11:57:35;;;;;;;2.75;1.65;;;27.70;42.70;;;;;;5011850;28;20049;-72
2022/07/23 12:00:16;;;;;;;5.38;1.80;;;27.70;43.30;;;;;;5012651;28;20400;-71
2022/07/23 12:02:50;;;;;;;3.45;1.75;;;27.80;43.10;;;;;;5014008;28;20026;-69
2022/07/23 12:05:19;;;;;;;4.03;2.03;;;27.90;42.90;;;;;;5010595;28;20409;-69
2022/07/23 12:07:49;;;;;;;3.60;1.70;;;28.00;42.60;;;;;;5012164;28;20037;-67
2022/07/23 12:10:29;;;;;;;4.60;1.98;;;28.00;42.60;;;;;;5012905;28;20038;-67
2022/07/23 12:13:01;;;;;;;4.53;2.13;;;28.00;42.60;;;;;;5011588;28;20128;-67
2022/07/23 12:15:33;;;;;;;3.55;1.58;;;28.00;42.70;;;;;;5011424;28;20046;-67
2022/07/23 12:18:01;;;;;;;4.95;2.00;;;28.00;42.90;;;;;;5010304;28;20030;-67
2022/07/23 12:20:38;;;;;;;5.35;1.90;;;27.90;42.70;;;;;;5013147;28;20049;-67
2022/07/23 12:23:07;;;;;;;4.15;1.85;;;27.90;42.70;;;;;;5012053;28;20034;-67
2022/07/23 12:25:35;;;;;;;5.40;2.00;;;27.80;43.00;;;;;;5012375;28;20034;-69
2022/07/23 12:28:03;;;;;;;5.32;2.15;;;27.60;43.30;;;;;;5029833;28;20030;-68
2022/07/23 12:30:37;;;;;;;4.72;1.63;;;27.30;43.80;;;;;;5014414;28;20075;-68
2022/07/23 12:33:05;;;;;;;4.63;1.95;;;27.30;44.20;;;;;;5018081;28;20029;-68
2022/07/23 12:35:37;;;;;;;3.58;1.80;;;27.30;44.20;;;;;;5016635;28;20025;-68
2022/07/23 12:38:05;;;;;;;4.20;1.95;;;27.30;44.20;;;;;;5011222;28;20029;-68
2022/07/23 12:40:35;;;;;;;5.38;2.20;;;27.30;44.10;;;;;;5016677;28;20026;-70
2022/07/23 12:43:03;;;;;;;4.70;2.00;;;27.20;43.80;;;;;;5015165;28;20474;-70
2022/07/23 12:45:50;;;;;;;4.25;2.00;;;27.00;44.00;;;;;;5016339;28;20037;-71
2022/07/23 12:48:36;;;;;;;4.13;1.77;;;27.00;44.20;;;;;;5014235;28;20132;-70
2022/07/23 12:51:14;;;;;;;5.47;1.83;;;26.90;44.30;;;;;;5013081;28;20026;-70
2022/07/23 12:53:51;;;;;;;4.80;2.30;;;26.90;44.30;;;;;;5012632;28;20029;-70
2022/07/23 12:56:35;;;;;;;5.75;2.35;;;26.90;44.30;;;;;;5010765;28;20068;-70
2022/07/23 12:59:05;;;;;;;4.38;2.00;;;26.90;44.50;;;;;;5016011;28;20096;-68
2022/07/23 13:01:36;;;;;;;5.03;1.77;;;26.90;44.80;;;;;;5015071;28;20113;-69